Terminal Aerodrome Forecast
Issued by NWS Northern Indiana

Home | Current Version | Previous Version | Text Only | Print | Product List | Glossary Off
Versions: 1 2 3 4 5 6 7 8 9 10 11 12 13 14 15 16 17 18 19 20 21

000
FTUS43 KIWX 262328 CCA
TAFFWA
TAF COR
KFWA 262328Z 2700/2724 09004KT P6SM FEW035 BKN150
      TEMPO 2710/2713 07003KT 4SM BR
     FM271300 09008KT P6SM SCT150=

USA.gov is the U.S. government's official web portal to all federal, state and local government web resources and services.